ADDS TAF Data INFO
IDs: Format: Raw Decoded Include METARs

Data at: 0848 UTC 19 Nov 2017

KINK 190753Z AUTO 01005KT 10SM CLR M01/M06 A3035 RMK AO2 SLP269 T10111061

KINK 190526Z 1906/2006 04006KT P6SM FEW250